createdAt,value
2024-04-21T00:03:59.904Z,100286.59
2024-04-21T00:09:01.414Z,100298.28
2024-04-21T00:14:02.876Z,100302.16
2024-04-21T00:19:05.464Z,100291.38
2024-04-21T00:24:07.301Z,100286.84
2024-04-21T00:29:11.057Z,100278.59
2024-04-21T00:34:12.963Z,100276.91
2024-04-21T00:39:15.412Z,100265.91
2024-04-21T00:44:16.820Z,100263.94
2024-04-21T00:49:18.424Z,100252.34
2024-04-21T00:54:20.065Z,100262.91
2024-04-21T00:59:23.381Z,100251.66
2024-04-21T01:04:29.906Z,100251.75
2024-04-21T01:09:31.413Z,100261.84
2024-04-21T01:14:32.810Z,100265.53
2024-04-21T01:19:34.236Z,100256.94
2024-04-21T01:24:35.739Z,100255.19
2024-04-21T01:29:38.719Z,100257.53
2024-04-21T01:34:40.323Z,100251.91
2024-04-21T01:39:41.808Z,100254.56
2024-04-21T01:44:44.083Z,100269.16
2024-04-21T01:49:46.334Z,100265.59
2024-04-21T01:54:48.130Z,100260.91
2024-04-21T01:59:50.363Z,100266.00
2024-04-21T02:04:51.880Z,100268.88
2024-04-21T02:09:53.515Z,100262.19
2024-04-21T02:14:57.472Z,100274.81
2024-04-21T02:19:58.901Z,100278.75
2024-04-21T02:25:02.811Z,100272.03
2024-04-21T02:30:04.995Z,100278.75
2024-04-21T02:35:09.640Z,100276.94
2024-04-21T02:40:11.968Z,100274.06
2024-04-21T02:45:13.431Z,100276.94
2024-04-21T02:50:14.925Z,100272.06
2024-04-21T02:55:17.980Z,100266.63
2024-04-21T03:00:19.699Z,100265.25
2024-04-21T03:05:21.106Z,100263.88
2024-04-21T03:10:23.767Z,100266.22
2024-04-21T03:15:25.319Z,100247.34
2024-04-21T03:20:26.978Z,100259.84
2024-04-21T03:25:28.682Z,100256.03
2024-04-21T03:30:31.139Z,100269.50
2024-04-21T03:35:33.948Z,100268.97
2024-04-21T03:40:35.318Z,100273.09
2024-04-21T03:45:36.713Z,100237.16
2024-04-21T03:50:39.055Z,100265.75
2024-04-21T03:55:40.432Z,100260.88
2024-04-21T04:00:41.989Z,100258.84
2024-04-21T04:05:45.260Z,100249.53
2024-04-21T04:10:47.881Z,100256.38
2024-04-21T04:15:49.866Z,100261.56
2024-04-21T04:20:51.530Z,100252.63
2024-04-21T04:25:53.179Z,100259.66
2024-04-21T04:30:54.842Z,100253.69
2024-04-21T04:35:57.908Z,100268.81
2024-04-21T04:40:59.505Z,100273.34
2024-04-21T04:46:01.256Z,100234.63
2024-04-21T04:51:02.875Z,100270.13
2024-04-21T04:56:05.096Z,100269.25
2024-04-21T05:01:06.565Z,100269.69
2024-04-21T05:06:09.374Z,100264.91
2024-04-21T05:11:10.809Z,100264.22
2024-04-21T05:16:14.921Z,100271.94
2024-04-21T05:21:16.432Z,100274.91
2024-04-21T05:26:18.052Z,100277.63
2024-04-21T05:31:19.796Z,100272.53
2024-04-21T05:36:21.369Z,100264.13
2024-04-21T05:41:23.121Z,100272.53
2024-04-21T05:46:25.085Z,100280.66
2024-04-21T05:51:26.898Z,100271.41
2024-04-21T05:56:30.812Z,100285.59
2024-04-21T06:01:32.231Z,100284.47
2024-04-21T06:06:36.539Z,100286.38
2024-04-21T06:11:38.143Z,100289.38
2024-04-21T06:16:39.617Z,100285.69
2024-04-21T06:21:41.676Z,100290.50
2024-04-21T06:26:45.366Z,100291.38
2024-04-21T06:31:48.117Z,100297.13
2024-04-21T06:36:49.615Z,100296.59
2024-04-21T06:41:52.378Z,100294.97
2024-04-21T06:46:54.013Z,100294.97
2024-04-21T06:51:56.407Z,100288.50
2024-04-21T06:56:59.631Z,100293.19
2024-04-21T07:02:01.754Z,100300.44
2024-04-21T07:07:03.642Z,100295.94
2024-04-21T07:12:06.085Z,100296.94
2024-04-21T07:17:08.907Z,100293.88
2024-04-21T07:22:10.359Z,100319.50
2024-04-21T07:27:14.433Z,100319.59
2024-04-21T07:32:17.299Z,100331.16
2024-04-21T07:37:18.975Z,100316.53
2024-04-21T07:42:20.682Z,100342.16
2024-04-21T07:47:22.234Z,100335.78
2024-04-21T07:52:24.022Z,100348.41
2024-04-21T07:57:25.703Z,100346.22
2024-04-21T08:02:30.812Z,100339.44
2024-04-21T08:07:32.785Z,100355.34
2024-04-21T08:12:34.239Z,100357.53
2024-04-21T08:17:36.091Z,100366.00
2024-04-21T08:22:38.902Z,100371.09
2024-04-21T08:27:42.217Z,100375.66
2024-04-21T08:32:44.284Z,100368.66
2024-04-21T08:37:45.975Z,100371.50
2024-04-21T08:42:49.401Z,100386.84
2024-04-21T08:47:51.932Z,100387.97
2024-04-21T08:52:55.859Z,100392.69
2024-04-21T08:57:58.042Z,100388.28
2024-04-21T09:02:59.626Z,100398.56
2024-04-21T09:08:01.369Z,100382.09
2024-04-21T09:13:03.218Z,100401.84
2024-04-21T09:18:06.173Z,100404.03
2024-04-21T09:23:08.650Z,100398.69
2024-04-21T09:28:10.283Z,100424.25
2024-04-21T09:33:12.074Z,100409.50
2024-04-21T09:38:13.787Z,100427.53
2024-04-21T09:43:15.862Z,100409.22
2024-04-21T09:48:19.409Z,100443.28
2024-04-21T09:53:21.773Z,100442.25
2024-04-21T09:58:27.415Z,100437.47
2024-04-21T10:03:30.601Z,100442.38
2024-04-21T10:08:32.805Z,100431.44
2024-04-21T10:13:35.390Z,100442.19
2024-04-21T10:18:37.164Z,100434.47
2024-04-21T10:23:41.589Z,100435.19
2024-04-21T10:28:45.807Z,100438.19
2024-04-21T10:33:48.981Z,100444.88
2024-04-21T10:38:57.209Z,100450.47
2024-04-21T10:44:00.072Z,100433.63
2024-04-21T10:49:01.763Z,100448.78
2024-04-21T10:54:03.515Z,100459.63
2024-04-21T10:59:06.891Z,100454.09
2024-04-21T11:04:08.623Z,100459.44
2024-04-21T11:09:11.792Z,100459.81
2024-04-21T11:14:13.688Z,100453.31
2024-04-21T11:19:15.926Z,100457.00
2024-04-21T11:24:18.591Z,100451.88
2024-04-21T11:29:20.599Z,100456.69
2024-04-21T11:34:22.051Z,100462.59
2024-04-21T11:39:23.656Z,100463.41
2024-04-21T11:44:34.550Z,100459.28
2024-04-21T11:49:36.081Z,100477.28
2024-04-21T11:54:40.192Z,100472.78
2024-04-21T11:59:43.077Z,100477.97
2024-04-21T12:04:44.610Z,100485.59
2024-04-21T12:09:46.145Z,100482.75
2024-04-21T12:14:47.748Z,100488.28
2024-04-21T12:19:50.831Z,100489.06
2024-04-21T12:24:52.532Z,100496.91
2024-04-21T12:29:56.399Z,100492.06
2024-04-21T12:34:58.320Z,100503.03
2024-04-21T12:40:01.294Z,100496.19
2024-04-21T12:45:03.150Z,100495.34
2024-04-21T12:50:06.097Z,100486.59
2024-04-21T12:55:10.578Z,100495.03
2024-04-21T13:00:12.424Z,100492.09
2024-04-21T13:05:15.360Z,100481.38
2024-04-21T13:10:17.349Z,100472.06
2024-04-21T13:15:18.774Z,100491.09
2024-04-21T13:20:20.226Z,100494.50
2024-04-21T13:25:22.581Z,100484.34
2024-04-21T13:30:24.208Z,100486.47
2024-04-21T13:35:25.669Z,100486.19
2024-04-21T13:40:27.186Z,100505.19
2024-04-21T13:45:28.617Z,100496.69
2024-04-21T13:50:32.561Z,100499.03
2024-04-21T13:55:34.133Z,100493.31
2024-04-21T14:00:35.871Z,100495.78
2024-04-21T14:05:37.948Z,100509.16
2024-04-21T14:10:42.084Z,100496.84
2024-04-21T14:15:43.511Z,100503.22
2024-04-21T14:20:45.130Z,100509.16
2024-04-21T14:25:46.833Z,100513.81
2024-04-21T14:30:48.649Z,100512.72
2024-04-21T14:35:52.286Z,100516.41
2024-04-21T14:40:55.183Z,100541.81
2024-04-21T14:45:56.871Z,100539.75
2024-04-21T14:51:00.242Z,100546.41
2024-04-21T14:56:05.911Z,100559.22
2024-04-21T15:01:07.534Z,100552.19
2024-04-21T15:06:09.169Z,100559.28
2024-04-21T15:11:11.237Z,100572.09
2024-04-21T15:16:15.055Z,100558.28
2024-04-21T15:21:16.848Z,100568.22
2024-04-21T15:26:18.471Z,100571.13
2024-04-21T15:31:19.942Z,100568.97
2024-04-21T15:36:22.205Z,100579.47
2024-04-21T15:41:25.120Z,100593.63
2024-04-21T15:46:29.555Z,100594.81
2024-04-21T15:51:31.015Z,100608.06
2024-04-21T15:56:32.457Z,100598.53
2024-04-21T16:01:35.243Z,100619.16
2024-04-21T16:06:36.688Z,100622.41
2024-04-21T16:11:39.153Z,100602.06
2024-04-21T16:16:41.501Z,100616.34
2024-04-21T16:21:43.138Z,100623.66
2024-04-21T16:26:45.735Z,100635.25
2024-04-21T16:31:49.935Z,100621.56
2024-04-21T16:36:51.840Z,100642.13
2024-04-21T16:41:55.192Z,100642.59
2024-04-21T16:46:57.460Z,100647.91
2024-04-21T16:52:01.443Z,100639.59
2024-04-21T16:57:18.460Z,100650.69
2024-04-21T17:02:25.283Z,100644.94
2024-04-21T17:07:40.171Z,100659.28
2024-04-21T17:12:41.594Z,100671.97
2024-04-21T17:17:44.080Z,100670.47
2024-04-21T17:22:48.808Z,100672.91
2024-04-21T17:27:50.253Z,100681.31
2024-04-21T17:32:52.409Z,100692.59
2024-04-21T17:37:54.514Z,100700.50
2024-04-21T17:42:56.769Z,100703.91
2024-04-21T17:47:59.889Z,100712.19
2024-04-21T17:53:02.032Z,100712.81
2024-04-21T17:58:06.537Z,100717.50
2024-04-21T18:03:08.733Z,100709.28
2024-04-21T18:08:12.864Z,100721.88
2024-04-21T18:13:16.009Z,100725.06
2024-04-21T18:18:17.586Z,100746.09
2024-04-21T18:23:19.405Z,100744.78
2024-04-21T18:28:21.156Z,100745.88
2024-04-21T18:33:22.708Z,100718.50
2024-04-21T18:38:24.534Z,100736.13
2024-04-21T18:43:29.515Z,100744.66
2024-04-21T18:48:30.913Z,100754.41
2024-04-21T18:53:33.439Z,100742.03
2024-04-21T18:58:35.799Z,100750.88
2024-04-21T19:03:37.499Z,100766.81
2024-04-21T19:08:41.208Z,100760.59
2024-04-21T19:13:43.901Z,100771.75
2024-04-21T19:18:45.990Z,100779.72
2024-04-21T19:23:48.880Z,100785.97
2024-04-21T19:28:52.381Z,100781.44
2024-04-21T19:33:53.809Z,100777.53
2024-04-21T19:38:55.218Z,100790.63
2024-04-21T19:43:56.899Z,100783.88
2024-04-21T19:48:59.278Z,100792.22
2024-04-21T19:54:00.987Z,100786.72
2024-04-21T19:59:03.425Z,100788.06
2024-04-21T20:04:06.608Z,100772.53
2024-04-21T20:09:08.017Z,100791.16
2024-04-21T20:14:09.419Z,100788.22
2024-04-21T20:19:11.251Z,100787.63
2024-04-21T20:24:12.727Z,100789.63
2024-04-21T20:29:14.174Z,100786.72
2024-04-21T20:34:15.627Z,100790.84
2024-04-21T20:39:17.824Z,100797.88
2024-04-21T20:44:19.510Z,100796.16
2024-04-21T20:49:21.270Z,100795.22
2024-04-21T20:54:22.787Z,100787.19
2024-04-21T20:59:24.629Z,100802.13
2024-04-21T21:04:26.258Z,100804.59
2024-04-21T21:09:27.834Z,100810.34
2024-04-21T21:14:31.455Z,100806.19
2024-04-21T21:19:33.633Z,100815.59
2024-04-21T21:24:35.139Z,100816.63
2024-04-21T21:29:37.056Z,100819.44
2024-04-21T21:34:40.630Z,100819.38
2024-04-21T21:39:44.842Z,100817.75
2024-04-21T21:44:46.315Z,100793.94
2024-04-21T21:49:47.974Z,100821.63
2024-04-21T21:54:49.639Z,100814.34
2024-04-21T21:59:53.616Z,100805.63
2024-04-21T22:04:55.044Z,100807.28
2024-04-21T22:09:56.786Z,100818.44
2024-04-21T22:14:58.659Z,100818.78
2024-04-21T22:20:00.421Z,100807.63
2024-04-21T22:25:03.007Z,100801.13
2024-04-21T22:30:05.518Z,100803.00
2024-04-21T22:35:08.076Z,100812.06
2024-04-21T22:40:10.402Z,100819.66
2024-04-21T22:45:11.946Z,100814.94
2024-04-21T22:50:14.950Z,100822.03
2024-04-21T22:55:16.536Z,100813.44
2024-04-21T23:00:18.085Z,100824.00
2024-04-21T23:05:19.499Z,100831.59
2024-04-21T23:10:21.061Z,100829.44
2024-04-21T23:15:22.556Z,100821.09
2024-04-21T23:20:24.210Z,100833.38
2024-04-21T23:25:25.685Z,100828.50
2024-04-21T23:30:27.141Z,100837.81
2024-04-21T23:35:28.979Z,100836.22
2024-04-21T23:40:30.521Z,100838.72
2024-04-21T23:45:33.496Z,100842.28
2024-04-21T23:50:35.154Z,100830.88
2024-04-21T23:55:36.929Z,100833.28
